Barrhead, Canada
Current Conditions -  °F | °C
As of 10:41 PM on Wednesday 26 Nov 2014 (Local Time) from CZVL Reporting Station
Haze Haze  
Wind Chill:   Ceiling: 10000
Heat Index: 14°   Visibility: 3mi
Dew Point: 12°   Wind: 6mph
Humidity: 93%   Direction: 340°NNW
Pressure: 30.08"   Gusts: NA
Location:  54.12°N, 114.4°W
Report Text: CZVL 270541Z AUTO 34005KT 3SM BR SCT002 OVC100 M10/M11 A3008 RMK SLP232
Loading
Personal Weather Stations






























Interactive Weather Map New forecast layout! Learn more

10-Day Weather Forecast

Advertisements
Track Severe Weather on mobile